• Join FlightAware (Why Join?)
  • Login
  • US Flag 
07:41PM EDT


 

Airport Tracker/Info


-or-


 

Live Flight TrackerFlight Track Log ✈ SWA22 ✈ 16-Apr-2013 ✈ KHRL - KHOU

Flight Track Log - Related Links

Times and Time Zones

All times are in EDT time to prevent confusion due to time zone crossing. See the SWA22 flight status page for this flight to view local times or setup timezone preferences in your user account.

Time Position Orientation Groundspeed Altitude Reporting Facility
EDT Latitude Longitude Course Direction KTS MPH feet Rate Location/Type
11:05AM 26.2147 -97.6433 49° Northeast 148 170 1,000  Level Houston Center
11:05AM 26.2389 -97.6119 49° Northeast 205 236 2,000 1,740 Climbing Houston Center
11:06AM 26.3092 -97.5817 21° North 277 319 4,100 2,220 Climbing Houston Center
11:07AM 26.3339 -97.5694 24° Northeast 283 326 5,000 3,420 Climbing Houston Center
11:08AM 26.4122 -97.5331 23° Northeast 302 348 8,700 3,600 Climbing Houston Center
11:09AM 26.4967 -97.4886 25° Northeast 312 359 12,500 3,120 Climbing Houston Center
11:10AM 26.5772 -97.4447 26° Northeast 321 369 15,200 2,760 Climbing Houston Center
11:11AM 26.6792 -97.4142 15° North 355 409 18,300 2,640 Climbing Houston Center
11:12AM 26.7814 -97.4178 358° North 367 422 20,700 2,400 Climbing Houston Center
11:13AM 26.8906 -97.4200 359° North 390 449 23,300 2,460 Climbing Houston Center
11:14AM 27.0100 -97.4239 358° North 398 458 25,800 1,980 Climbing Houston Center
11:15AM 27.1097 -97.3900 17° North 424 488 27,400 1,500 Climbing Houston Center
11:16AM 27.2164 -97.3247 29° Northeast 435 501 29,000 1,440 Climbing Houston Center
11:17AM 27.3278 -97.2581 28° Northeast 448 516 30,400 1,500 Climbing Houston Center
11:18AM 27.4667 -97.1725 29° Northeast 468 539 32,100 1,560 Climbing Houston Center
11:19AM 27.5833 -97.1036 28° Northeast 479 551 33,700 1,380 Climbing Houston Center
11:20AM 27.7031 -97.0300 29° Northeast 486 559 35,000 600 Climbing Houston Center
11:21AM 27.8219 -96.9578 28° Northeast 486 559 35,000 -300 Level Houston Center
11:22AM 27.9403 -96.8842 29° Northeast 487 560 34,500 -780 Descending Houston Center
11:23AM 28.0828 -96.7958 29° Northeast 487 560 33,400 -1,020 Descending Houston Center
11:24AM 28.1828 -96.6903 43° Northeast 488 562 32,400 -1,020 Descending Houston Center
11:25AM 28.2836 -96.5844 43° Northeast 493 567 31,400 -1,140 Descending Houston Center
11:26AM 28.3825 -96.4847 42° Northeast 483 556 30,100 -1,860 Descending Houston Center
11:27AM 28.4975 -96.4225 25° Northeast 462 532 27,600 -2,820 Descending Houston Center
11:28AM 28.6347 -96.3578 22° Northeast 448 516 24,300 -2,580 Descending Houston Center
11:29AM 28.7442 -96.3042 23° Northeast 431 496 22,300 -1,560 Descending Houston Center
11:31AM 28.8447 -96.2564 23° Northeast 397 457 21,100 -1,260 Descending Houston Center
11:32AM 28.9431 -96.2089 23° Northeast 388 447 19,700 -1,680 Descending Houston Center
11:33AM 29.0408 -96.1628 22° Northeast 383 441 17,600 -2,400 Descending Houston Center
11:33AM 29.0839 -96.1417 23° Northeast 378 435 16,500 -2,640 Descending Houston Center
11:34AM 29.1522 -96.1092 23° Northeast 366 421 14,900 -2,040 Descending Houston Center
11:35AM 29.2419 -96.0661 23° Northeast 356 410 12,900 -2,040 Descending Houston Center
11:35AM 29.2711 -96.0514 24° Northeast 346 398 12,300 -1,080 Descending Houston Center
11:36AM 29.3208 -96.0153 32° Northeast 337 388 11,800 -1,260 Descending Houston Center
11:37AM 29.3783 -95.9383 49° Northeast 319 367 10,100 -1,320 Descending Houston Center
11:38AM 29.4506 -95.8464 48° Northeast 304 350 9,000 -1,080 Descending Houston Center
11:39AM 29.5053 -95.7753 49° Northeast 302 348 7,800 -1,260 Descending Houston Center
11:40AM 29.5617 -95.7014 49° Northeast 307 353 6,500 -1,320 Descending Houston Center
11:41AM 29.6114 -95.6364 49° Northeast 293 337 5,200 -1,440 Descending Houston Center
11:42AM 29.6636 -95.5706 48° Northeast 282 325 3,700 -1,140 Descending Houston Center
11:43AM 29.7136 -95.5008 50° Northeast 253 291 3,000 -780 Descending Houston Center
11:44AM 29.7458 -95.4394 59° Northeast 222 255 2,200 -480 Descending Houston Center
11:45AM 29.7328 -95.3819 105° East 212 244 2,000 -360 Descending Houston Center
11:46AM 29.7017 -95.3483 137° Southeast 134 154 1,500 -600 Descending Houston Center
11:47AM 29.6781 -95.3200 134° Southeast 116 133 900 -600 Descending Houston Center
11:48AM 29.6569 -95.2936 133° Southeast 119 137 300 -360 Descending Houston Center
11:49AM 29.6336 -95.2650 115° Southeast 120 138 100 -180 Descending Houston Center
11:50AM 29.6454 -95.2789 115° Southeast  Level Estimated